createdAt,value
2023-04-10T00:00:00.524Z,5.10
2023-04-10T00:01:00.473Z,5.30
2023-04-10T00:02:00.646Z,5.50
2023-04-10T00:03:00.617Z,5.30
2023-04-10T00:04:00.958Z,5.00
2023-04-10T00:05:00.431Z,5.50
2023-04-10T00:06:00.319Z,5.10
2023-04-10T00:07:00.288Z,5.20
2023-04-10T00:08:00.258Z,4.90
2023-04-10T00:09:00.245Z,4.70
2023-04-10T00:10:00.196Z,5.10
2023-04-10T00:11:00.187Z,4.90
2023-04-10T00:12:00.142Z,5.20
2023-04-10T00:13:00.128Z,5.10
2023-04-10T00:14:00.106Z,5.10
2023-04-10T00:15:00.047Z,5.30
2023-04-10T00:16:00.016Z,5.20
2023-04-10T00:17:00.006Z,5.10
2023-04-10T00:18:00.009Z,5.40
2023-04-10T00:18:59.926Z,5.40
2023-04-10T00:19:59.896Z,5.20
2023-04-10T00:20:59.864Z,5.10
2023-04-10T00:21:59.834Z,5.10
2023-04-10T00:22:59.812Z,5.10
2023-04-10T00:23:59.771Z,5.20
2023-04-10T00:24:59.762Z,5.10
2023-04-10T00:25:59.712Z,5.00
2023-04-10T00:26:59.680Z,5.40
2023-04-10T00:27:59.652Z,5.50
2023-04-10T00:28:59.622Z,5.30
2023-04-10T00:29:59.591Z,5.30
2023-04-10T00:30:59.562Z,5.40
2023-04-10T00:31:59.582Z,5.50
2023-04-10T00:32:59.577Z,5.30
2023-04-10T00:33:59.469Z,5.40
2023-04-10T00:34:59.437Z,5.90
2023-04-10T00:35:59.464Z,7.20
2023-04-10T00:36:59.377Z,8.90
2023-04-10T00:37:59.355Z,9.40
2023-04-10T00:38:59.316Z,9.30
2023-04-10T00:39:59.285Z,8.70
2023-04-10T00:40:59.275Z,8.60
2023-04-10T00:41:59.225Z,7.10
2023-04-10T00:42:59.195Z,6.90
2023-04-10T00:43:59.162Z,6.30
2023-04-10T00:44:59.144Z,5.70
2023-04-10T00:45:59.110Z,5.70
2023-04-10T00:46:59.073Z,5.70
2023-04-10T00:47:59.075Z,5.60
2023-04-10T00:48:59.009Z,6.10
2023-04-10T00:49:58.980Z,5.80
2023-04-10T00:50:59.003Z,5.40
2023-04-10T00:51:58.926Z,5.60
2023-04-10T00:52:58.887Z,6.20
2023-04-10T00:53:58.860Z,6.20
2023-04-10T00:54:58.831Z,6.20
2023-04-10T00:55:58.796Z,6.00
2023-04-10T00:56:58.783Z,6.20
2023-04-10T00:57:58.737Z,6.00
2023-04-10T00:58:58.705Z,6.10
2023-04-10T00:59:58.672Z,6.50
2023-04-10T01:00:58.713Z,6.20
2023-04-10T01:01:58.734Z,5.70
2023-04-10T01:02:58.758Z,5.90
2023-04-10T01:03:59.094Z,6.00
2023-04-10T01:04:58.523Z,5.90
2023-04-10T01:05:58.488Z,5.80
2023-04-10T01:06:58.456Z,5.70
2023-04-10T01:07:58.429Z,6.30
2023-04-10T01:08:58.393Z,5.80
2023-04-10T01:09:58.375Z,5.70
2023-04-10T01:10:58.332Z,6.30
2023-04-10T01:11:58.301Z,6.00
2023-04-10T01:12:58.304Z,6.00
2023-04-10T01:13:58.246Z,6.40
2023-04-10T01:14:58.208Z,6.00
2023-04-10T01:15:58.193Z,6.00
2023-04-10T01:16:58.163Z,6.60
2023-04-10T01:17:58.221Z,6.00
2023-04-10T01:18:58.088Z,5.80
2023-04-10T01:19:58.057Z,6.20
2023-04-10T01:20:58.033Z,6.20
2023-04-10T01:21:58.000Z,6.30
2023-04-10T01:22:57.994Z,6.00
2023-04-10T01:23:57.933Z,6.20
2023-04-10T01:24:57.910Z,6.60
2023-04-10T01:25:57.876Z,6.40
2023-04-10T01:26:57.840Z,6.10
2023-04-10T01:27:57.809Z,6.50
2023-04-10T01:28:57.795Z,6.30
2023-04-10T01:29:57.749Z,6.50
2023-04-10T01:30:57.865Z,6.50
2023-04-10T01:31:57.689Z,6.50
2023-04-10T01:32:57.676Z,6.70
2023-04-10T01:33:57.797Z,6.00
2023-04-10T01:34:57.608Z,6.50
2023-04-10T01:35:57.603Z,6.20
2023-04-10T01:36:57.662Z,6.20
2023-04-10T01:37:57.522Z,6.50
2023-04-10T01:38:57.506Z,6.70
2023-04-10T01:39:57.439Z,6.70
2023-04-10T01:40:57.412Z,6.40
2023-04-10T01:41:57.377Z,6.60
2023-04-10T01:42:57.350Z,6.50
2023-04-10T01:43:57.315Z,6.80
2023-04-10T01:44:57.310Z,6.70
2023-04-10T01:45:57.394Z,6.20
2023-04-10T01:46:57.223Z,7.30
2023-04-10T01:47:57.227Z,6.90
2023-04-10T01:48:57.162Z,6.60
2023-04-10T01:49:57.135Z,7.00
2023-04-10T01:50:57.102Z,6.70
2023-04-10T01:51:57.076Z,6.50
2023-04-10T01:52:57.038Z,6.80
2023-04-10T01:53:57.008Z,6.90
2023-04-10T01:54:56.977Z,6.40
2023-04-10T01:55:56.948Z,6.90
2023-04-10T01:56:56.913Z,6.90
2023-04-10T01:57:56.885Z,7.00
2023-04-10T01:58:56.861Z,7.50
2023-04-10T01:59:56.822Z,6.90
2023-04-10T02:00:56.813Z,7.30
2023-04-10T02:01:56.808Z,7.10
2023-04-10T02:02:56.813Z,7.10
2023-04-10T02:03:57.117Z,7.00
2023-04-10T02:04:56.706Z,7.20
2023-04-10T02:05:56.640Z,7.50
2023-04-10T02:06:56.603Z,7.00
2023-04-10T02:07:56.573Z,7.60
2023-04-10T02:08:56.541Z,7.60
2023-04-10T02:09:56.512Z,7.60
2023-04-10T02:10:56.479Z,7.40
2023-04-10T02:11:56.455Z,7.60
2023-04-10T02:12:56.417Z,7.90
2023-04-10T02:13:56.405Z,7.30
2023-04-10T02:14:56.352Z,7.00
2023-04-10T02:15:56.358Z,7.40
2023-04-10T02:16:56.360Z,7.80
2023-04-10T02:17:56.282Z,7.70
2023-04-10T02:18:56.234Z,7.70
2023-04-10T02:19:56.198Z,7.00
2023-04-10T02:20:56.181Z,7.30
2023-04-10T02:21:56.137Z,7.50
2023-04-10T02:22:56.105Z,7.70
2023-04-10T02:23:56.184Z,7.50
2023-04-10T02:24:56.043Z,7.30
2023-04-10T02:25:56.010Z,7.60
2023-04-10T02:26:55.981Z,7.50
2023-04-10T02:27:55.947Z,7.40
2023-04-10T02:28:55.926Z,7.60
2023-04-10T02:29:55.885Z,7.70
2023-04-10T02:30:55.905Z,7.30
2023-04-10T02:31:55.824Z,7.90
2023-04-10T02:32:55.833Z,7.50
2023-04-10T02:33:56.010Z,7.80
2023-04-10T02:34:55.730Z,7.50
2023-04-10T02:35:55.719Z,8.00
2023-04-10T02:36:55.668Z,7.70
2023-04-10T02:37:55.638Z,7.20
2023-04-10T02:38:55.604Z,7.70
2023-04-10T02:39:55.572Z,7.70
2023-04-10T02:40:55.545Z,7.50
2023-04-10T02:41:55.510Z,7.70
2023-04-10T02:42:55.489Z,7.90
2023-04-10T02:43:55.551Z,7.80
2023-04-10T02:44:55.418Z,7.90
2023-04-10T02:45:55.385Z,7.90
2023-04-10T02:46:55.372Z,7.80
2023-04-10T02:47:55.397Z,7.90
2023-04-10T02:48:55.325Z,7.60
2023-04-10T02:49:55.261Z,8.00
2023-04-10T02:50:55.231Z,7.60
2023-04-10T02:51:55.197Z,7.80
2023-04-10T02:52:55.192Z,7.70
2023-04-10T02:53:55.253Z,7.80
2023-04-10T02:54:55.107Z,8.00
2023-04-10T02:55:55.100Z,8.20
2023-04-10T02:56:55.048Z,7.60
2023-04-10T02:57:55.015Z,8.30
2023-04-10T02:58:54.981Z,8.00
2023-04-10T02:59:54.972Z,8.10
2023-04-10T03:00:54.919Z,8.20
2023-04-10T03:01:54.968Z,7.90
2023-04-10T03:02:55.018Z,7.60
2023-04-10T03:03:55.129Z,7.80
2023-04-10T03:04:54.864Z,7.90
2023-04-10T03:05:54.760Z,7.90
2023-04-10T03:06:54.732Z,7.30
2023-04-10T03:07:54.698Z,8.10
2023-04-10T03:08:54.671Z,7.50
2023-04-10T03:09:54.636Z,7.40
2023-04-10T03:10:54.613Z,8.10
2023-04-10T03:11:54.573Z,8.20
2023-04-10T03:12:54.549Z,7.50
2023-04-10T03:13:55.159Z,8.20
2023-04-10T03:14:54.487Z,8.00
2023-04-10T03:15:54.479Z,7.90
2023-04-10T03:16:54.419Z,8.10
2023-04-10T03:17:54.447Z,7.70
2023-04-10T03:18:54.360Z,8.20
2023-04-10T03:19:54.339Z,7.90
2023-04-10T03:20:54.321Z,7.90
2023-04-10T03:21:54.312Z,8.30
2023-04-10T03:22:54.238Z,8.00
2023-04-10T03:23:54.333Z,7.60
2023-04-10T03:24:54.172Z,8.00
2023-04-10T03:25:54.135Z,8.10
2023-04-10T03:26:54.111Z,7.90
2023-04-10T03:27:54.074Z,7.90
2023-04-10T03:28:54.044Z,8.40
2023-04-10T03:29:54.011Z,8.50
2023-04-10T03:30:53.986Z,8.50
2023-04-10T03:31:54.014Z,8.50
2023-04-10T03:32:53.929Z,8.30
2023-04-10T03:33:54.126Z,8.30
2023-04-10T03:34:53.858Z,8.20
2023-04-10T03:35:53.872Z,8.80
2023-04-10T03:36:53.813Z,8.50
2023-04-10T03:37:53.770Z,8.40
2023-04-10T03:38:53.739Z,8.30
2023-04-10T03:39:53.701Z,9.10
2023-04-10T03:40:53.671Z,8.50
2023-04-10T03:41:53.646Z,8.60
2023-04-10T03:42:53.611Z,8.20
2023-04-10T03:43:53.938Z,8.70
2023-04-10T03:44:53.545Z,8.00
2023-04-10T03:45:53.512Z,8.50
2023-04-10T03:46:53.654Z,8.60
2023-04-10T03:47:53.476Z,8.60
2023-04-10T03:48:53.422Z,8.60
2023-04-10T03:49:53.389Z,8.30
2023-04-10T03:50:53.358Z,8.30
2023-04-10T03:51:53.325Z,8.70
2023-04-10T03:52:53.324Z,8.40
2023-04-10T03:53:53.720Z,8.10
2023-04-10T03:54:53.232Z,8.00
2023-04-10T03:55:53.200Z,8.60
2023-04-10T03:56:53.182Z,8.20
2023-04-10T03:57:53.141Z,8.40
2023-04-10T03:58:53.110Z,8.80
2023-04-10T03:59:53.074Z,8.20
2023-04-10T04:00:53.045Z,8.40
2023-04-10T04:01:53.049Z,8.20
2023-04-10T04:02:53.132Z,8.20
2023-04-10T04:03:53.474Z,8.70
2023-04-10T04:04:52.960Z,8.20
2023-04-10T04:05:52.911Z,8.10
2023-04-10T04:06:52.864Z,8.40
2023-04-10T04:07:52.826Z,8.90
2023-04-10T04:08:52.819Z,9.00
2023-04-10T04:09:54.214Z,8.80
2023-04-10T04:10:52.735Z,8.60
2023-04-10T04:11:52.725Z,8.30
2023-04-10T04:12:52.675Z,8.40
2023-04-10T04:13:52.947Z,8.10
2023-04-10T04:14:52.606Z,8.40
2023-04-10T04:15:52.584Z,8.20
2023-04-10T04:16:52.576Z,8.90
2023-04-10T04:17:52.546Z,8.10
2023-04-10T04:18:52.483Z,8.30
2023-04-10T04:19:52.469Z,8.20
2023-04-10T04:20:52.429Z,8.50
2023-04-10T04:21:52.391Z,9.00
2023-04-10T04:22:52.360Z,8.50
2023-04-10T04:23:52.702Z,8.40
2023-04-10T04:24:52.314Z,9.20
2023-04-10T04:25:52.264Z,8.40
2023-04-10T04:26:52.232Z,9.30
2023-04-10T04:27:52.205Z,8.80
2023-04-10T04:28:52.169Z,8.70
2023-04-10T04:29:52.138Z,9.00
2023-04-10T04:30:52.107Z,8.80
2023-04-10T04:31:52.100Z,8.50
2023-04-10T04:32:52.097Z,8.80
2023-04-10T04:33:52.227Z,8.60
2023-04-10T04:34:51.984Z,9.10
2023-04-10T04:35:51.985Z,8.60
2023-04-10T04:36:51.931Z,9.40
2023-04-10T04:37:51.889Z,8.50
2023-04-10T04:38:51.859Z,9.30
2023-04-10T04:39:51.840Z,9.10
2023-04-10T04:40:51.817Z,9.30
2023-04-10T04:41:51.775Z,9.50
2023-04-10T04:42:51.732Z,9.20
2023-04-10T04:43:51.911Z,8.80
2023-04-10T04:44:51.668Z,8.70
2023-04-10T04:45:51.691Z,8.90
2023-04-10T04:46:51.609Z,9.20
2023-04-10T04:47:51.583Z,8.50
2023-04-10T04:48:51.545Z,8.70
2023-04-10T04:49:51.512Z,8.70
2023-04-10T04:50:51.481Z,8.60
2023-04-10T04:51:51.448Z,8.60
2023-04-10T04:52:51.422Z,8.90
2023-04-10T04:53:51.398Z,8.60
2023-04-10T04:54:51.354Z,8.40
2023-04-10T04:55:51.321Z,8.80
2023-04-10T04:56:51.318Z,9.00
2023-04-10T04:57:51.261Z,8.80
2023-04-10T04:58:51.271Z,9.00
2023-04-10T04:59:51.196Z,8.90
2023-04-10T05:00:51.208Z,8.90
2023-04-10T05:01:51.296Z,8.50
2023-04-10T05:02:51.272Z,8.80
2023-04-10T05:03:51.148Z,9.00
2023-04-10T05:04:51.040Z,8.90
2023-04-10T05:05:51.006Z,9.40
2023-04-10T05:06:50.978Z,9.30
2023-04-10T05:07:50.939Z,8.60
2023-04-10T05:08:50.909Z,8.80
2023-04-10T05:09:50.881Z,8.50
2023-04-10T05:10:50.848Z,8.80
2023-04-10T05:11:50.816Z,8.10
2023-04-10T05:12:50.802Z,9.10
2023-04-10T05:13:50.749Z,9.10
2023-04-10T05:14:50.719Z,9.00
2023-04-10T05:15:50.713Z,9.20
2023-04-10T05:16:50.655Z,9.30
2023-04-10T05:17:50.664Z,8.90
2023-04-10T05:18:50.619Z,8.60
2023-04-10T05:19:50.560Z,9.50
2023-04-10T05:20:50.536Z,8.60
2023-04-10T05:21:50.504Z,8.70
2023-04-10T05:22:50.473Z,9.20
2023-04-10T05:23:50.436Z,8.60
2023-04-10T05:24:50.402Z,9.20
2023-04-10T05:25:50.369Z,9.10
2023-04-10T05:26:50.357Z,8.80
2023-04-10T05:27:50.304Z,8.90
2023-04-10T05:28:50.298Z,9.30
2023-04-10T05:29:50.244Z,8.30
2023-04-10T05:30:50.241Z,9.20
2023-04-10T05:31:52.120Z,8.90
2023-04-10T05:32:50.166Z,8.80
2023-04-10T05:33:50.120Z,9.00
2023-04-10T05:34:50.089Z,9.30
2023-04-10T05:35:50.076Z,8.70
2023-04-10T05:36:50.044Z,9.10
2023-04-10T05:37:49.996Z,8.60
2023-04-10T05:38:49.978Z,8.20
2023-04-10T05:39:49.928Z,8.60
2023-04-10T05:40:49.899Z,8.70
2023-04-10T05:41:49.871Z,8.70
2023-04-10T05:42:49.841Z,8.50
2023-04-10T05:43:49.805Z,8.40
2023-04-10T05:44:49.796Z,8.70
2023-04-10T05:45:49.742Z,8.30
2023-04-10T05:46:49.777Z,8.60
2023-04-10T05:47:49.733Z,8.60
2023-04-10T05:48:49.659Z,8.60
2023-04-10T05:49:49.618Z,9.00
2023-04-10T05:50:49.587Z,8.50
2023-04-10T05:51:49.562Z,9.00
2023-04-10T05:52:49.543Z,9.00
2023-04-10T05:53:49.494Z,8.70
2023-04-10T05:54:49.463Z,8.80
2023-04-10T05:55:49.430Z,8.50
2023-04-10T05:56:49.404Z,8.80
2023-04-10T05:57:49.367Z,8.60
2023-04-10T05:58:49.336Z,8.30
2023-04-10T05:59:49.307Z,8.30
2023-04-10T06:00:49.293Z,8.10
2023-04-10T06:01:49.247Z,8.50
2023-04-10T06:02:49.292Z,8.50
2023-04-10T06:03:49.351Z,8.50
2023-04-10T06:04:49.402Z,8.30
2023-04-10T06:05:49.125Z,8.30
2023-04-10T06:06:49.097Z,8.80
2023-04-10T06:07:49.055Z,8.20
2023-04-10T06:08:49.025Z,9.00
2023-04-10T06:09:49.025Z,8.30
2023-04-10T06:10:48.972Z,8.60
2023-04-10T06:11:48.934Z,8.90
2023-04-10T06:12:48.901Z,8.20
2023-04-10T06:13:48.877Z,8.90
2023-04-10T06:14:48.841Z,8.60
2023-04-10T06:15:48.823Z,8.90
2023-04-10T06:16:48.803Z,8.70
2023-04-10T06:17:48.761Z,8.40
2023-04-10T06:18:48.715Z,8.80
2023-04-10T06:19:48.684Z,8.60
2023-04-10T06:20:48.655Z,8.60
2023-04-10T06:21:48.632Z,8.40
2023-04-10T06:22:48.594Z,8.30
2023-04-10T06:23:48.560Z,8.40
2023-04-10T06:24:48.532Z,8.80
2023-04-10T06:25:48.500Z,8.30
2023-04-10T06:26:48.470Z,8.20
2023-04-10T06:27:48.451Z,8.40
2023-04-10T06:28:48.406Z,8.20
2023-04-10T06:29:48.376Z,8.60
2023-04-10T06:30:48.348Z,8.00
2023-04-10T06:31:48.341Z,8.70
2023-04-10T06:32:48.322Z,8.60
2023-04-10T06:33:48.255Z,8.20
2023-04-10T06:34:48.227Z,8.10
2023-04-10T06:35:48.248Z,8.70
2023-04-10T06:36:48.168Z,8.50
2023-04-10T06:37:48.146Z,8.70
2023-04-10T06:38:48.102Z,8.80
2023-04-10T06:39:48.097Z,9.00
2023-04-10T06:40:48.039Z,8.50
2023-04-10T06:41:48.010Z,8.70
2023-04-10T06:42:47.981Z,8.70
2023-04-10T06:43:48.009Z,8.60
2023-04-10T06:44:47.917Z,8.60
2023-04-10T06:45:47.887Z,9.50
2023-04-10T06:46:47.888Z,9.80
2023-04-10T06:47:47.864Z,9.10
2023-04-10T06:48:47.814Z,9.40
2023-04-10T06:49:47.764Z,9.10
2023-04-10T06:50:47.741Z,9.30
2023-04-10T06:51:47.701Z,9.20
2023-04-10T06:52:47.906Z,9.00
2023-04-10T06:53:47.641Z,9.10
2023-04-10T06:54:47.609Z,9.20
2023-04-10T06:55:47.577Z,9.00
2023-04-10T06:56:47.548Z,9.20
2023-04-10T06:57:47.518Z,8.30
2023-04-10T06:58:47.484Z,9.10
2023-04-10T06:59:47.464Z,8.90
2023-04-10T07:00:47.469Z,9.20
2023-04-10T07:01:47.410Z,8.70
2023-04-10T07:02:47.394Z,9.30
2023-04-10T07:03:47.362Z,8.90
2023-04-10T07:04:47.316Z,9.20
2023-04-10T07:05:47.362Z,8.90
2023-04-10T07:06:47.239Z,9.30
2023-04-10T07:07:47.215Z,9.30
2023-04-10T07:08:47.178Z,9.20
2023-04-10T07:09:47.145Z,9.00
2023-04-10T07:10:47.113Z,8.70
2023-04-10T07:11:47.084Z,8.90
2023-04-10T07:12:47.054Z,8.70
2023-04-10T07:13:47.032Z,8.80
2023-04-10T07:14:46.992Z,9.30
2023-04-10T07:15:46.964Z,9.70
2023-04-10T07:16:46.961Z,9.00
2023-04-10T07:17:46.937Z,9.10
2023-04-10T07:18:47.591Z,9.30
2023-04-10T07:19:46.852Z,9.10
2023-04-10T07:20:46.854Z,9.40
2023-04-10T07:21:46.780Z,9.10
2023-04-10T07:22:46.746Z,9.20
2023-04-10T07:23:46.721Z,9.20
2023-04-10T07:24:46.689Z,8.50
2023-04-10T07:25:46.657Z,8.80
2023-04-10T07:26:46.635Z,8.40
2023-04-10T07:27:46.595Z,8.70
2023-04-10T07:28:46.564Z,9.00
2023-04-10T07:29:46.533Z,8.00
2023-04-10T07:30:46.502Z,8.20
2023-04-10T07:31:46.554Z,8.10
2023-04-10T07:32:46.604Z,8.40
2023-04-10T07:33:46.430Z,8.30
2023-04-10T07:34:46.378Z,8.30
2023-04-10T07:35:46.391Z,8.90
2023-04-10T07:36:46.338Z,8.20
2023-04-10T07:37:46.289Z,8.60
2023-04-10T07:38:46.258Z,8.20
2023-04-10T07:39:46.229Z,9.20
2023-04-10T07:40:46.203Z,7.90
2023-04-10T07:41:46.173Z,8.50
2023-04-10T07:42:46.134Z,8.10
2023-04-10T07:43:46.127Z,8.50
2023-04-10T07:44:46.077Z,8.30
2023-04-10T07:45:46.088Z,8.70
2023-04-10T07:46:46.028Z,8.40
2023-04-10T07:47:46.030Z,9.10
2023-04-10T07:48:45.956Z,8.50
2023-04-10T07:49:45.926Z,8.60
2023-04-10T07:50:45.902Z,9.10
2023-04-10T07:51:45.867Z,9.00
2023-04-10T07:52:45.871Z,8.60
2023-04-10T07:53:45.804Z,8.40
2023-04-10T07:54:45.773Z,9.20
2023-04-10T07:55:45.746Z,8.30
2023-04-10T07:56:45.719Z,9.10
2023-04-10T07:57:45.698Z,8.70
2023-04-10T07:58:45.660Z,8.60
2023-04-10T07:59:45.624Z,8.30
2023-04-10T08:00:45.593Z,7.90
2023-04-10T08:01:45.586Z,7.90
2023-04-10T08:02:45.627Z,8.50
2023-04-10T08:03:45.674Z,8.30
2023-04-10T08:04:45.576Z,8.50
2023-04-10T08:05:45.451Z,8.40
2023-04-10T08:06:45.414Z,8.60
2023-04-10T08:07:45.385Z,8.60
2023-04-10T08:08:45.370Z,7.80
2023-04-10T08:09:45.335Z,8.20
2023-04-10T08:10:45.302Z,8.00
2023-04-10T08:11:45.268Z,7.80
2023-04-10T08:12:45.232Z,8.20
2023-04-10T08:13:45.209Z,8.20
2023-04-10T08:14:45.216Z,8.10
2023-04-10T08:15:45.149Z,8.20
2023-04-10T08:16:45.173Z,9.00
2023-04-10T08:17:45.100Z,8.20
2023-04-10T08:18:45.057Z,8.10
2023-04-10T08:19:45.024Z,8.20
2023-04-10T08:20:44.999Z,8.00
2023-04-10T08:21:44.978Z,8.00
2023-04-10T08:22:44.937Z,8.10
2023-04-10T08:23:44.908Z,8.30
2023-04-10T08:24:44.899Z,8.30
2023-04-10T08:25:44.849Z,7.90
2023-04-10T08:26:44.817Z,7.50
2023-04-10T08:27:44.788Z,7.40
2023-04-10T08:28:44.758Z,7.60
2023-04-10T08:29:44.728Z,7.50
2023-04-10T08:30:44.761Z,7.10
2023-04-10T08:31:44.684Z,7.20
2023-04-10T08:32:44.694Z,7.50
2023-04-10T08:33:44.656Z,7.30
2023-04-10T08:34:44.586Z,7.50
2023-04-10T08:35:44.578Z,7.80
2023-04-10T08:36:44.551Z,8.10
2023-04-10T08:37:49.678Z,7.70
2023-04-10T08:38:44.476Z,7.10
2023-04-10T08:39:44.435Z,6.80
2023-04-10T08:40:44.703Z,6.90
2023-04-10T08:41:44.381Z,6.20
2023-04-10T08:42:44.352Z,7.40
2023-04-10T08:43:44.318Z,7.10
2023-04-10T08:44:44.290Z,7.40
2023-04-10T08:45:44.292Z,7.10
2023-04-10T08:46:44.238Z,6.80
2023-04-10T08:47:44.240Z,6.80
2023-04-10T08:48:44.173Z,6.90
2023-04-10T08:49:44.146Z,7.00
2023-04-10T08:50:44.128Z,6.20
2023-04-10T08:51:44.147Z,6.20
2023-04-10T08:52:44.065Z,6.40
2023-04-10T08:53:44.027Z,6.90
2023-04-10T08:54:43.998Z,6.40
2023-04-10T08:55:43.971Z,6.50
2023-04-10T08:56:43.960Z,6.10
2023-04-10T08:57:50.949Z,6.00
2023-04-10T08:58:43.881Z,6.00
2023-04-10T08:59:43.853Z,6.20
2023-04-10T09:00:43.824Z,6.50
2023-04-10T09:01:43.874Z,6.60
2023-04-10T09:02:43.927Z,5.80
2023-04-10T09:03:43.923Z,5.70
2023-04-10T09:04:43.740Z,5.80
2023-04-10T09:05:43.689Z,5.80
2023-04-10T09:06:43.652Z,6.00
2023-04-10T09:07:43.624Z,6.10
2023-04-10T09:08:43.601Z,6.40
2023-04-10T09:09:43.569Z,6.80
2023-04-10T09:10:43.544Z,6.80
2023-04-10T09:11:43.511Z,6.30
2023-04-10T09:12:43.515Z,6.80
2023-04-10T09:13:43.459Z,6.10
2023-04-10T09:14:43.434Z,6.50
2023-04-10T09:15:43.418Z,6.80
2023-04-10T09:16:43.369Z,6.60
2023-04-10T09:17:43.364Z,6.30
2023-04-10T09:18:43.344Z,6.60
2023-04-10T09:19:43.285Z,6.50
2023-04-10T09:20:43.251Z,5.90
2023-04-10T09:21:43.225Z,5.70
2023-04-10T09:22:43.195Z,5.80
2023-04-10T09:23:43.169Z,6.20
2023-04-10T09:24:43.138Z,5.80
2023-04-10T09:25:43.111Z,5.80
2023-04-10T09:26:43.091Z,5.70
2023-04-10T09:27:43.053Z,6.00
2023-04-10T09:28:43.045Z,6.00
2023-04-10T09:29:43.007Z,6.30
2023-04-10T09:30:42.970Z,6.20
2023-04-10T09:31:43.142Z,6.20
2023-04-10T09:32:43.015Z,6.00
2023-04-10T09:33:42.888Z,5.60
2023-04-10T09:34:42.872Z,6.00
2023-04-10T09:35:42.828Z,5.60
2023-04-10T09:36:42.821Z,5.60
2023-04-10T09:37:42.798Z,5.90
2023-04-10T09:38:42.747Z,5.50
2023-04-10T09:39:42.716Z,5.60
2023-04-10T09:40:42.695Z,5.80
2023-04-10T09:41:42.661Z,5.70
2023-04-10T09:42:42.635Z,5.60
2023-04-10T09:43:42.606Z,5.30
2023-04-10T09:44:42.596Z,5.60
2023-04-10T09:45:42.551Z,5.10
2023-04-10T09:46:42.558Z,5.30
2023-04-10T09:47:42.531Z,5.80
2023-04-10T09:48:42.467Z,5.50
2023-04-10T09:49:42.441Z,5.30
2023-04-10T09:50:42.409Z,5.80
2023-04-10T09:51:42.393Z,5.30
2023-04-10T09:52:42.369Z,5.10
2023-04-10T09:53:42.331Z,5.10
2023-04-10T09:54:42.303Z,5.30
2023-04-10T09:55:42.328Z,5.20
2023-04-10T09:56:42.247Z,5.40
2023-04-10T09:57:42.230Z,5.60
2023-04-10T09:58:42.194Z,5.60
2023-04-10T09:59:43.054Z,5.40
2023-04-10T10:00:42.172Z,5.70
2023-04-10T10:01:42.159Z,5.90
2023-04-10T10:02:42.336Z,5.50
2023-04-10T10:03:42.080Z,5.60
2023-04-10T10:04:42.038Z,5.40
2023-04-10T10:05:42.015Z,5.50
2023-04-10T10:06:41.976Z,5.30
2023-04-10T10:07:41.953Z,5.30
2023-04-10T10:08:41.928Z,5.10
2023-04-10T10:09:41.900Z,5.00
2023-04-10T10:10:41.895Z,5.10
2023-04-10T10:11:41.841Z,5.20
2023-04-10T10:12:41.812Z,5.50
2023-04-10T10:13:41.791Z,5.70
2023-04-10T10:14:41.759Z,5.40
2023-04-10T10:15:41.736Z,5.20
2023-04-10T10:16:41.926Z,5.10
2023-04-10T10:17:41.734Z,5.50
2023-04-10T10:18:41.654Z,6.00
2023-04-10T10:19:41.627Z,5.50
2023-04-10T10:20:41.601Z,5.20
2023-04-10T10:21:41.583Z,5.10
2023-04-10T10:22:41.557Z,5.00
2023-04-10T10:23:41.523Z,5.10
2023-04-10T10:24:41.497Z,5.40
2023-04-10T10:25:41.479Z,5.10
2023-04-10T10:26:41.443Z,5.40
2023-04-10T10:27:41.431Z,4.70
2023-04-10T10:28:41.392Z,5.20
2023-04-10T10:29:41.370Z,4.60
2023-04-10T10:30:41.338Z,5.10
2023-04-10T10:31:41.352Z,4.70
2023-04-10T10:32:41.368Z,4.90
2023-04-10T10:33:41.270Z,4.80
2023-04-10T10:34:41.233Z,5.10
2023-04-10T10:35:41.211Z,4.80
2023-04-10T10:36:41.286Z,4.60
2023-04-10T10:37:41.156Z,4.80
2023-04-10T10:38:41.138Z,5.10
2023-04-10T10:39:41.103Z,4.90
2023-04-10T10:40:41.079Z,4.90
2023-04-10T10:41:41.058Z,5.00
2023-04-10T10:42:41.035Z,4.90
2023-04-10T10:43:40.999Z,4.80
2023-04-10T10:44:40.972Z,4.70
2023-04-10T10:45:40.964Z,5.30
2023-04-10T10:46:40.918Z,4.80
2023-04-10T10:47:40.901Z,5.10
2023-04-10T10:48:40.892Z,5.00
2023-04-10T10:49:40.844Z,5.10
2023-04-10T10:50:40.814Z,4.60
2023-04-10T10:51:40.811Z,5.20
2023-04-10T10:52:40.759Z,4.90
2023-04-10T10:53:40.764Z,5.10
2023-04-10T10:54:53.583Z,4.60
2023-04-10T10:55:40.696Z,4.90
2023-04-10T10:56:40.672Z,4.80
2023-04-10T10:57:40.631Z,4.70
2023-04-10T10:58:40.607Z,4.90
2023-04-10T10:59:40.580Z,5.80
2023-04-10T11:00:40.555Z,4.70
2023-04-10T11:01:40.700Z,4.90
2023-04-10T11:02:40.667Z,5.10
2023-04-10T11:03:40.669Z,4.90
2023-04-10T11:04:40.496Z,4.90
2023-04-10T11:05:40.426Z,5.10
2023-04-10T11:06:40.788Z,5.00
2023-04-10T11:07:40.375Z,5.40
2023-04-10T11:08:40.350Z,5.40
2023-04-10T11:09:40.324Z,5.20
2023-04-10T11:10:40.300Z,5.40
2023-04-10T11:11:40.272Z,5.20
2023-04-10T11:12:40.247Z,5.70
2023-04-10T11:13:40.223Z,5.20
2023-04-10T11:14:40.254Z,5.20
2023-04-10T11:15:40.170Z,5.30
2023-04-10T11:16:40.178Z,5.50
2023-04-10T11:17:40.168Z,5.30
2023-04-10T11:18:40.095Z,5.40
2023-04-10T11:19:40.076Z,5.20
2023-04-10T11:20:40.062Z,5.30
2023-04-10T11:21:40.025Z,4.60
2023-04-10T11:22:39.993Z,4.90
2023-04-10T11:23:39.968Z,4.80
2023-04-10T11:24:39.943Z,5.10
2023-04-10T11:25:39.918Z,4.80
2023-04-10T11:26:39.901Z,5.50
2023-04-10T11:27:39.917Z,4.80
2023-04-10T11:28:39.847Z,4.80
2023-04-10T11:29:39.812Z,5.00
2023-04-10T11:30:39.789Z,4.90
2023-04-10T11:31:39.812Z,5.30
2023-04-10T11:32:39.782Z,5.50
2023-04-10T11:33:39.719Z,6.20
2023-04-10T11:34:39.709Z,5.30
2023-04-10T11:35:39.695Z,5.30
2023-04-10T11:36:39.654Z,5.50
2023-04-10T11:37:39.607Z,5.10
2023-04-10T11:38:39.582Z,5.70
2023-04-10T11:39:39.559Z,5.90
2023-04-10T11:40:39.531Z,5.70
2023-04-10T11:41:39.527Z,5.80
2023-04-10T11:42:39.481Z,5.40
2023-04-10T11:43:39.458Z,5.00
2023-04-10T11:44:39.652Z,4.70
2023-04-10T11:45:39.426Z,4.60
2023-04-10T11:46:39.379Z,4.70
2023-04-10T11:47:39.413Z,4.60
2023-04-10T11:48:39.341Z,4.20
2023-04-10T11:49:39.301Z,4.10
2023-04-10T11:50:39.278Z,4.50
2023-04-10T11:51:39.262Z,4.70
2023-04-10T11:52:39.248Z,4.30
2023-04-10T11:53:39.209Z,4.20
2023-04-10T11:54:39.281Z,4.30
2023-04-10T11:55:39.149Z,3.90
2023-04-10T11:56:39.157Z,4.90
2023-04-10T11:57:39.107Z,4.40
2023-04-10T11:58:39.077Z,4.00
2023-04-10T11:59:39.065Z,4.60
2023-04-10T12:00:39.038Z,4.30
2023-04-10T12:01:41.984Z,5.00
2023-04-10T12:02:39.093Z,4.40
2023-04-10T12:03:39.061Z,4.60
2023-04-10T12:04:39.245Z,4.10
2023-04-10T12:05:38.902Z,4.80
2023-04-10T12:06:38.878Z,4.50
2023-04-10T12:07:38.853Z,4.10
2023-04-10T12:08:38.870Z,4.30
2023-04-10T12:09:38.804Z,4.50
2023-04-10T12:10:38.780Z,4.70
2023-04-10T12:11:38.754Z,4.30
2023-04-10T12:12:38.729Z,4.00
2023-04-10T12:13:38.726Z,4.10
2023-04-10T12:14:38.796Z,4.30
2023-04-10T12:15:38.701Z,4.60
2023-04-10T12:16:38.633Z,4.80
2023-04-10T12:17:38.630Z,4.90
2023-04-10T12:18:38.687Z,4.50
2023-04-10T12:19:38.556Z,4.50
2023-04-10T12:20:38.539Z,4.30
2023-04-10T12:21:38.510Z,4.20
2023-04-10T12:22:38.483Z,4.20
2023-04-10T12:23:38.467Z,4.30
2023-04-10T12:24:38.511Z,4.20
2023-04-10T12:25:38.410Z,4.10
2023-04-10T12:26:38.407Z,4.10
2023-04-10T12:27:38.364Z,3.80
2023-04-10T12:28:38.337Z,3.50
2023-04-10T12:29:38.318Z,3.70
2023-04-10T12:30:38.293Z,3.50
2023-04-10T12:31:38.345Z,3.30
2023-04-10T12:32:38.316Z,3.00
2023-04-10T12:33:38.223Z,3.30
2023-04-10T12:34:38.231Z,4.10
2023-04-10T12:35:38.197Z,3.90
2023-04-10T12:36:38.157Z,4.00
2023-04-10T12:37:38.122Z,4.90
2023-04-10T12:38:38.103Z,4.90
2023-04-10T12:39:38.083Z,4.80
2023-04-10T12:40:38.073Z,4.50
2023-04-10T12:41:38.032Z,4.40
2023-04-10T12:42:38.006Z,4.00
2023-04-10T12:43:37.981Z,6.40
2023-04-10T12:44:37.998Z,5.30
2023-04-10T12:45:37.936Z,4.40
2023-04-10T12:46:37.962Z,4.20
2023-04-10T12:47:37.914Z,3.80
2023-04-10T12:48:37.861Z,3.80
2023-04-10T12:49:37.836Z,3.20
2023-04-10T12:50:37.815Z,3.40
2023-04-10T12:51:37.790Z,3.20
2023-04-10T12:52:37.770Z,3.30
2023-04-10T12:53:37.748Z,3.30
2023-04-10T12:54:37.722Z,3.20
2023-04-10T12:55:37.694Z,3.00
2023-04-10T12:56:37.692Z,3.00
2023-04-10T12:57:37.648Z,3.30
2023-04-10T12:58:37.626Z,3.70
2023-04-10T12:59:37.609Z,3.50
2023-04-10T13:00:37.581Z,3.50
2023-04-10T13:01:37.628Z,3.40
2023-04-10T13:02:37.939Z,3.50
2023-04-10T13:03:37.688Z,3.20
2023-04-10T13:04:37.700Z,3.20
2023-04-10T13:05:37.484Z,3.80
2023-04-10T13:06:38.738Z,3.70
2023-04-10T13:07:37.492Z,3.70
2023-04-10T13:08:37.394Z,3.70
2023-04-10T13:09:37.373Z,3.50
2023-04-10T13:10:37.346Z,3.60
2023-04-10T13:11:37.322Z,3.70
2023-04-10T13:12:37.333Z,3.50
2023-04-10T13:13:37.278Z,3.80
2023-04-10T13:14:37.288Z,3.70
2023-04-10T13:15:37.228Z,3.70
2023-04-10T13:16:37.241Z,3.80
2023-04-10T13:17:37.214Z,4.00